Time,TemperatureF,DewpointF,PressureIn,WindDirection,WindDirectionDegrees,WindSpeedMPH,WindSpeedGustMPH,Humidity,HourlyPrecipIn,Conditions,Clouds,dailyrainin,SolarRadiationWatts/m^2,SoftwareType,DateUTC
2013-05-12 00:04:00,57.5,52.7,29.90,WSW,249,2.0,6.0,84,0.00,CLR,CLR,0.00,0.0,WeatherDisplay:10.37,2013-05-12 04:04:00,
2013-05-12 00:09:00,57.6,52.5,29.90,WSW,240,5.0,6.0,83,0.00,CLR,CLR,0.00,0.0,WeatherDisplay:10.37,2013-05-12 04:09:00,
2013-05-12 00:19:00,58.2,51.7,29.90,West,260,7.0,16.0,79,0.00,CLR,CLR,0.00,0.0,WeatherDisplay:10.37,2013-05-12 04:19:00,
2013-05-12 00:29:00,58.1,52.0,29.91,West,274,3.0,6.0,80,0.00,CLR,CLR,0.00,0.0,WeatherDisplay:10.37,2013-05-12 04:29:00,
2013-05-12 00:34:00,58.0,51.5,29.91,West,265,5.0,12.0,79,0.00,CLR,CLR,0.00,0.0,WeatherDisplay:10.37,2013-05-12 04:34:00,
2013-05-12 00:39:00,58.0,51.2,29.91,West,267,3.0,12.0,78,0.00,CLR,CLR,0.00,0.0,WeatherDisplay:10.37,2013-05-12 04:39:00,
2013-05-12 00:44:00,57.8,51.3,29.91,West,263,5.0,9.0,79,0.00,CLR,CLR,0.00,0.0,WeatherDisplay:10.37,2013-05-12 04:44:00,
2013-05-12 00:49:00,57.6,51.1,29.91,WSW,246,3.0,6.0,79,0.00,CLR,CLR,0.00,0.0,WeatherDisplay:10.37,2013-05-12 04:49:00,
2013-05-12 00:59:00,57.1,50.0,29.90,West,268,6.0,12.0,77,0.00,CLR,CLR,0.00,0.0,WeatherDisplay:10.37,2013-05-12 04:59:00,
2013-05-12 01:04:00,57.1,50.0,29.90,West,263,5.0,16.0,77,0.00,CLR,CLR,0.00,0.0,WeatherDisplay:10.37,2013-05-12 05:04:00,
2013-05-12 01:09:00,56.8,50.0,29.90,WSW,252,6.0,13.0,78,0.00,CLR,CLR,0.00,0.0,WeatherDisplay:10.37,2013-05-12 05:09:00,
2013-05-12 01:14:00,56.4,49.6,29.90,WSW,255,5.0,12.0,78,0.00,CLR,CLR,0.00,0.0,WeatherDisplay:10.37,2013-05-12 05:14:00,
2013-05-12 01:19:00,56.2,49.4,29.90,West,260,6.0,10.0,78,0.00,CLR,CLR,0.00,0.0,WeatherDisplay:10.37,2013-05-12 05:19:00,
2013-05-12 01:29:00,55.7,49.0,29.89,West,259,5.0,14.0,78,0.00,CLR,CLR,0.00,0.0,WeatherDisplay:10.37,2013-05-12 05:29:00,
2013-05-12 01:39:00,55.3,48.6,29.89,WSW,258,6.0,12.0,78,0.00,CLR,CLR,0.00,0.0,WeatherDisplay:10.37,2013-05-12 05:39:00,
2013-05-12 01:49:00,54.8,48.1,29.88,West,264,6.0,10.0,78,0.00,CLR,CLR,0.00,0.0,WeatherDisplay:10.37,2013-05-12 05:49:00,
2013-05-12 01:59:00,54.4,48.0,29.89,WSW,252,5.0,10.0,79,0.00,CLR,CLR,0.00,0.0,WeatherDisplay:10.37,2013-05-12 05:59:00,
2013-05-12 02:04:00,54.3,47.9,29.89,WSW,252,7.0,12.0,79,0.00,CLR,CLR,0.00,0.0,WeatherDisplay:10.37,2013-05-12 06:04:00,
2013-05-12 02:09:00,54.3,47.9,29.89,WSW,254,2.0,6.0,79,0.00,CLR,CLR,0.00,0.0,WeatherDisplay:10.37,2013-05-12 06:09:00,
2013-05-12 02:19:00,53.9,47.5,29.89,West,265,3.0,6.0,79,0.00,CLR,CLR,0.00,0.0,WeatherDisplay:10.37,2013-05-12 06:19:00,
2013-05-12 02:24:00,53.7,47.7,29.89,West,259,3.0,7.0,80,0.00,CLR,CLR,0.00,0.0,WeatherDisplay:10.37,2013-05-12 06:24:00,
2013-05-12 02:29:00,53.5,47.5,29.89,WNW,288,1.0,5.0,80,0.00,CLR,CLR,0.00,0.0,WeatherDisplay:10.37,2013-05-12 06:29:00,
2013-05-12 02:34:00,53.4,47.4,29.89,West,272,1.0,6.0,80,0.00,CLR,CLR,0.00,0.0,WeatherDisplay:10.37,2013-05-12 06:34:00,
2013-05-12 02:39:00,53.2,47.2,29.89,WSW,256,2.0,6.0,80,0.00,CLR,CLR,0.00,0.0,WeatherDisplay:10.37,2013-05-12 06:39:00,
2013-05-12 02:49:00,52.8,47.1,29.89,WSW,258,1.0,5.0,81,0.00,CLR,CLR,0.00,0.0,WeatherDisplay:10.37,2013-05-12 06:49:00,
2013-05-12 02:59:00,52.3,47.3,29.89,WSW,251,3.0,7.0,83,0.00,CLR,CLR,0.00,0.0,WeatherDisplay:10.37,2013-05-12 06:59:00,
2013-05-12 03:09:00,51.9,46.6,29.89,West,264,0.0,6.0,82,0.00,CLR,CLR,0.00,0.0,WeatherDisplay:10.37,2013-05-12 07:09:00,
2013-05-12 03:14:00,51.7,46.4,29.88,West,274,0.0,4.0,82,0.00,CLR,CLR,0.00,0.0,WeatherDisplay:10.37,2013-05-12 07:14:00,
2013-05-12 03:19:00,51.6,46.0,29.89,WSW,255,0.0,4.0,81,0.00,CLR,CLR,0.00,0.0,WeatherDisplay:10.37,2013-05-12 07:19:00,
2013-05-12 03:24:00,51.4,46.1,29.89,West,274,0.0,1.0,82,0.00,CLR,CLR,0.00,0.0,WeatherDisplay:10.37,2013-05-12 07:24:00,
2013-05-12 03:29:00,50.7,45.7,29.89,West,274,0.0,0.0,83,0.00,CLR,CLR,0.00,0.0,WeatherDisplay:10.37,2013-05-12 07:29:00,
2013-05-12 03:39:00,50.2,44.6,29.88,West,272,0.0,1.0,81,0.00,CLR,CLR,0.00,0.0,WeatherDisplay:10.37,2013-05-12 07:39:00,
2013-05-12 03:49:00,49.6,44.0,29.88,WSW,248,0.0,7.0,81,0.00,CLR,CLR,0.00,0.0,WeatherDisplay:10.37,2013-05-12 07:49:00,
2013-05-12 03:59:00,50.1,43.5,29.88,SW,226,0.0,4.0,78,0.00,CLR,CLR,0.00,0.0,WeatherDisplay:10.37,2013-05-12 07:59:00,
2013-05-12 04:09:00,49.2,43.6,29.88,SW,226,0.0,4.0,81,0.00,CLR,CLR,0.00,0.0,WeatherDisplay:10.37,2013-05-12 08:09:00,
2013-05-12 04:19:00,49.5,41.9,29.88,WSW,248,5.0,9.0,75,0.00,CLR,CLR,0.00,0.0,WeatherDisplay:10.37,2013-05-12 08:19:00,
2013-05-12 04:24:00,50.3,42.4,29.88,West,260,0.0,5.0,74,0.00,CLR,CLR,0.00,0.0,WeatherDisplay:10.37,2013-05-12 08:24:00,
2013-05-12 04:29:00,50.4,43.4,29.89,West,270,1.0,4.0,77,0.00,CLR,CLR,0.00,0.0,WeatherDisplay:10.37,2013-05-12 08:29:00,
2013-05-12 04:39:00,48.3,43.3,29.89,West,262,0.0,1.0,83,0.00,CLR,CLR,0.00,0.0,WeatherDisplay:10.37,2013-05-12 08:39:00,
2013-05-12 04:44:00,47.7,43.1,29.89,West,262,0.0,1.0,84,0.00,CLR,CLR,0.00,0.0,WeatherDisplay:10.37,2013-05-12 08:44:00,
2013-05-12 04:49:00,47.3,42.7,29.89,WSW,255,0.0,4.0,84,0.00,CLR,CLR,0.00,0.0,WeatherDisplay:10.37,2013-05-12 08:49:00,
2013-05-12 04:54:00,46.9,42.9,29.89,WSW,250,0.0,4.0,86,0.00,CLR,CLR,0.00,0.0,WeatherDisplay:10.37,2013-05-12 08:54:00,
2013-05-12 04:59:00,47.0,42.8,29.89,WSW,251,0.0,4.0,85,0.00,CLR,CLR,0.00,0.0,WeatherDisplay:10.37,2013-05-12 08:59:00,
2013-05-12 05:04:00,47.0,42.7,29.89,WSW,252,0.0,1.0,85,0.00,CLR,CLR,0.00,0.0,WeatherDisplay:10.37,2013-05-12 09:04:00,
2013-05-12 05:09:00,46.7,42.1,29.89,WSW,249,1.0,5.0,84,0.00,CLR,CLR,0.00,0.0,WeatherDisplay:10.37,2013-05-12 09:09:00,
2013-05-12 05:14:00,46.6,42.4,29.89,WSW,245,0.0,1.0,85,0.00,CLR,CLR,0.00,0.0,WeatherDisplay:10.37,2013-05-12 09:14:00,
2013-05-12 05:19:00,46.4,42.4,29.89,WSW,245,0.0,1.0,86,0.00,CLR,CLR,0.00,0.0,WeatherDisplay:10.37,2013-05-12 09:19:00,
2013-05-12 05:29:00,45.6,42.0,29.90,WSW,245,0.0,1.0,87,0.00,CLR,CLR,0.00,0.0,WeatherDisplay:10.37,2013-05-12 09:29:00,
2013-05-12 05:34:00,45.4,41.8,29.90,WSW,245,0.0,1.0,87,0.00,CLR,CLR,0.00,0.0,WeatherDisplay:10.37,2013-05-12 09:34:00,
2013-05-12 05:39:00,45.4,41.8,29.90,WSW,247,0.0,2.0,87,0.00,CLR,CLR,0.00,0.0,WeatherDisplay:10.37,2013-05-12 09:39:00,
2013-05-12 05:44:00,45.4,41.8,29.90,WSW,250,0.0,2.0,87,0.00,CLR,CLR,0.00,0.0,WeatherDisplay:10.37,2013-05-12 09:44:00,
2013-05-12 05:49:00,45.4,41.4,29.90,WSW,251,0.0,0.0,86,0.00,CLR,CLR,0.00,0.0,WeatherDisplay:10.37,2013-05-12 09:49:00,
2013-05-12 05:59:00,45.1,41.5,29.90,WSW,251,0.0,0.0,87,0.00,OVC,OVC,0.00,0.0,WeatherDisplay:10.37,2013-05-12 09:59:00,
2013-05-12 06:04:00,45.1,41.7,29.91,WSW,251,0.0,1.0,88,0.00,OVC,OVC,0.00,0.0,WeatherDisplay:10.37,2013-05-12 10:04:00,
2013-05-12 06:09:00,44.9,41.3,29.91,WSW,251,0.0,0.0,87,0.00,OVC,OVC,0.00,0.0,WeatherDisplay:10.37,2013-05-12 10:09:00,
2013-05-12 06:19:00,44.8,41.8,29.92,WSW,251,2.0,4.0,89,0.00,OVC,OVC,0.00,0.0,WeatherDisplay:10.37,2013-05-12 10:19:00,
2013-05-12 06:24:00,44.9,41.9,29.92,WSW,250,0.0,2.0,89,0.00,OVC,OVC,0.00,0.0,WeatherDisplay:10.37,2013-05-12 10:24:00,
2013-05-12 06:34:00,44.4,41.4,29.92,WSW,249,1.0,3.0,89,0.00,CLR,CLR,0.00,7.0,WeatherDisplay:10.37,2013-05-12 10:34:00,
2013-05-12 06:39:00,44.3,41.6,29.92,WSW,249,0.0,1.0,90,0.00,SCT,SCT,0.00,11.0,WeatherDisplay:10.37,2013-05-12 10:39:00,
2013-05-12 06:49:00,44.5,42.0,29.92,WSW,249,0.0,1.0,91,0.00,BKN,BKN,0.00,16.0,WeatherDisplay:10.37,2013-05-12 10:49:00,
2013-05-12 06:59:00,45.4,42.9,29.93,WSW,237,2.0,5.0,91,0.00,OVC,OVC,0.00,23.0,WeatherDisplay:10.37,2013-05-12 10:59:00,
2013-05-12 07:04:00,46.1,43.4,29.93,SW,228,2.0,4.0,90,0.00,OVC,OVC,0.00,26.0,WeatherDisplay:10.37,2013-05-12 11:04:00,
2013-05-12 07:09:00,46.6,43.5,29.93,SW,223,1.0,5.0,89,0.00,OVC,OVC,0.00,35.0,WeatherDisplay:10.37,2013-05-12 11:09:00,
2013-05-12 07:19:00,47.1,43.7,29.93,SW,221,0.0,4.0,88,0.00,OVC,OVC,0.00,44.0,WeatherDisplay:10.37,2013-05-12 11:19:00,
2013-05-12 07:29:00,47.6,43.9,29.94,WSW,245,0.0,2.0,87,0.00,OVC,OVC,0.00,56.0,WeatherDisplay:10.37,2013-05-12 11:29:00,
2013-05-12 07:39:00,48.2,44.2,29.94,WSW,244,0.0,4.0,86,0.00,CLR,CLR,0.00,186.0,WeatherDisplay:10.37,2013-05-12 11:39:00,
2013-05-12 07:44:00,48.7,44.4,29.94,WSW,244,0.0,5.0,85,0.00,CLR,CLR,0.00,216.0,WeatherDisplay:10.37,2013-05-12 11:44:00,
2013-05-12 07:49:00,49.2,44.6,29.94,SW,236,0.0,4.0,84,0.00,CLR,CLR,0.00,225.0,WeatherDisplay:10.37,2013-05-12 11:49:00,
2013-05-12 07:54:00,49.5,44.6,29.94,SW,226,1.0,4.0,83,0.00,CLR,CLR,0.00,241.0,WeatherDisplay:10.37,2013-05-12 11:54:00,
2013-05-12 07:59:00,50.0,45.0,29.94,SW,228,0.0,1.0,83,0.00,CLR,CLR,0.00,255.0,WeatherDisplay:10.37,2013-05-12 11:59:00,
2013-05-12 08:09:00,51.1,45.1,29.94,SSW,204,0.0,1.0,80,0.00,CLR,CLR,0.00,288.0,WeatherDisplay:10.37,2013-05-12 12:09:00,
2013-05-12 08:19:00,52.5,46.1,29.94,South,178,0.0,1.0,79,0.00,CLR,CLR,0.00,330.0,WeatherDisplay:10.37,2013-05-12 12:19:00,
2013-05-12 08:29:00,52.8,45.1,29.95,SW,217,1.0,5.0,75,0.00,CLR,CLR,0.00,366.0,WeatherDisplay:10.37,2013-05-12 12:29:00,
2013-05-12 08:34:00,53.0,45.3,29.95,SSW,200,1.0,6.0,75,0.00,CLR,CLR,0.00,387.0,WeatherDisplay:10.37,2013-05-12 12:34:00,
2013-05-12 08:39:00,53.5,45.4,29.95,SSW,204,1.0,6.0,74,0.00,CLR,CLR,0.00,399.0,WeatherDisplay:10.37,2013-05-12 12:39:00,
2013-05-12 08:49:00,54.6,45.0,29.95,WSW,242,3.0,10.0,70,0.00,CLR,CLR,0.00,445.0,WeatherDisplay:10.37,2013-05-12 12:49:00,
2013-05-12 08:54:00,54.9,43.8,29.95,WSW,251,2.0,10.0,66,0.00,CLR,CLR,0.00,469.0,WeatherDisplay:10.37,2013-05-12 12:54:00,
2013-05-12 08:59:00,55.3,43.3,29.96,WSW,254,6.0,12.0,64,0.00,CLR,CLR,0.00,497.0,WeatherDisplay:10.37,2013-05-12 12:59:00,
2013-05-12 09:04:00,55.5,42.7,29.96,WSW,243,10.0,14.0,62,0.00,CLR,CLR,0.00,496.0,WeatherDisplay:10.37,2013-05-12 13:04:00,
2013-05-12 09:09:00,55.5,42.2,29.96,WSW,249,7.0,17.0,61,0.00,CLR,CLR,0.00,504.0,WeatherDisplay:10.37,2013-05-12 13:09:00,
2013-05-12 09:19:00,55.4,41.3,29.96,WSW,243,8.0,18.0,59,0.00,CLR,CLR,0.00,540.0,WeatherDisplay:10.37,2013-05-12 13:19:00,
2013-05-12 09:24:00,55.4,40.9,29.96,WSW,240,6.0,18.0,58,0.00,CLR,CLR,0.00,563.0,WeatherDisplay:10.37,2013-05-12 13:24:00,
2013-05-12 09:29:00,55.6,40.6,29.97,WSW,246,5.0,13.0,57,0.00,CLR,CLR,0.00,584.0,WeatherDisplay:10.37,2013-05-12 13:29:00,
2013-05-12 09:34:00,55.9,40.0,29.97,WSW,258,7.0,15.0,55,0.00,CLR,CLR,0.00,599.0,WeatherDisplay:10.37,2013-05-12 13:34:00,
2013-05-12 09:39:00,55.6,39.2,29.96,SW,235,8.0,20.0,54,0.00,CLR,CLR,0.00,612.0,WeatherDisplay:10.37,2013-05-12 13:39:00,
2013-05-12 09:49:00,56.1,39.2,29.96,WSW,241,7.0,20.0,53,0.00,CLR,CLR,0.00,649.0,WeatherDisplay:10.37,2013-05-12 13:49:00,
2013-05-12 09:54:00,56.3,40.3,29.96,WSW,252,9.0,17.0,55,0.00,CLR,CLR,0.00,663.0,WeatherDisplay:10.37,2013-05-12 13:54:00,
2013-05-12 09:59:00,56.4,40.0,29.96,WSW,253,3.0,14.0,54,0.00,CLR,CLR,0.00,675.0,WeatherDisplay:10.37,2013-05-12 13:59:00,
2013-05-12 10:04:00,56.8,38.9,29.96,WSW,242,13.0,18.0,51,0.00,CLR,CLR,0.00,694.0,WeatherDisplay:10.37,2013-05-12 14:04:00,
2013-05-12 10:09:00,56.7,39.3,29.96,WSW,244,6.0,16.0,52,0.00,CLR,CLR,0.00,707.0,WeatherDisplay:10.37,2013-05-12 14:09:00,
2013-05-12 10:14:00,57.1,40.1,29.96,WSW,257,7.0,15.0,53,0.00,CLR,CLR,0.00,722.0,WeatherDisplay:10.37,2013-05-12 14:14:00,
2013-05-12 10:19:00,57.4,39.9,29.96,WSW,258,3.0,12.0,52,0.00,CLR,CLR,0.00,731.0,WeatherDisplay:10.37,2013-05-12 14:19:00,
2013-05-12 10:29:00,58.0,39.5,29.96,West,280,2.0,9.0,50,0.00,CLR,CLR,0.00,761.0,WeatherDisplay:10.37,2013-05-12 14:29:00,
2013-05-12 10:39:00,58.7,39.0,29.96,West,273,2.0,10.0,48,0.00,CLR,CLR,0.00,789.0,WeatherDisplay:10.37,2013-05-12 14:39:00,
2013-05-12 10:44:00,58.9,37.0,29.97,West,266,2.0,14.0,44,0.00,CLR,CLR,0.00,807.0,WeatherDisplay:10.37,2013-05-12 14:44:00,
2013-05-12 10:49:00,58.6,36.7,29.96,WSW,251,6.0,13.0,44,0.00,CLR,CLR,0.00,821.0,WeatherDisplay:10.37,2013-05-12 14:49:00,
2013-05-12 10:54:00,59.0,38.2,29.97,WSW,241,7.0,13.0,46,0.00,FEW,FEW,0.00,831.0,WeatherDisplay:10.37,2013-05-12 14:54:00,
2013-05-12 10:59:00,58.6,36.8,29.97,SW,236,13.0,18.0,44,0.00,FEW,FEW,0.00,842.0,WeatherDisplay:10.37,2013-05-12 14:59:00,
2013-05-12 11:04:00,58.4,37.1,29.97,WSW,242,9.0,20.0,45,0.00,FEW,FEW,0.00,847.0,WeatherDisplay:10.37,2013-05-12 15:04:00,
2013-05-12 11:09:00,58.8,37.5,29.97,WSW,243,13.0,18.0,45,0.00,FEW,FEW,0.00,863.0,WeatherDisplay:10.37,2013-05-12 15:09:00,
2013-05-12 11:19:00,58.3,37.0,29.97,WSW,255,15.0,22.0,45,0.00,FEW,FEW,0.00,886.0,WeatherDisplay:10.37,2013-05-12 15:19:00,
2013-05-12 11:29:00,58.6,35.6,29.97,WSW,247,14.0,22.0,42,0.00,FEW,FEW,0.00,905.0,WeatherDisplay:10.37,2013-05-12 15:29:00,
2013-05-12 11:39:00,59.0,36.5,29.97,West,266,9.0,18.0,43,0.00,FEW,FEW,0.00,921.0,WeatherDisplay:10.37,2013-05-12 15:39:00,
2013-05-12 11:44:00,59.1,36.0,29.97,West,275,10.0,17.0,42,0.00,FEW,FEW,0.00,928.0,WeatherDisplay:10.37,2013-05-12 15:44:00,
2013-05-12 11:49:00,59.8,36.0,29.98,WSW,247,9.0,20.0,41,0.00,FEW,FEW,0.00,933.0,WeatherDisplay:10.37,2013-05-12 15:49:00,
2013-05-12 11:59:00,60.5,36.6,29.97,West,261,9.0,15.0,41,0.00,FEW,FEW,0.00,951.0,WeatherDisplay:10.37,2013-05-12 15:59:00,
2013-05-12 12:04:00,60.9,36.4,29.97,WSW,253,9.0,14.0,40,0.00,FEW,FEW,0.00,962.0,WeatherDisplay:10.37,2013-05-12 16:04:00,
2013-05-12 12:09:00,60.8,35.7,29.97,WSW,253,12.0,18.0,39,0.00,FEW,FEW,0.00,965.0,WeatherDisplay:10.37,2013-05-12 16:09:00,
2013-05-12 12:14:00,60.5,35.4,29.97,WSW,252,12.0,18.0,39,0.00,FEW,FEW,0.00,969.0,WeatherDisplay:10.37,2013-05-12 16:14:00,
2013-05-12 12:19:00,60.7,35.6,29.97,WSW,251,9.0,18.0,39,0.00,FEW,FEW,0.00,974.0,WeatherDisplay:10.37,2013-05-12 16:19:00,
2013-05-12 12:24:00,61.3,34.7,29.97,WSW,243,10.0,18.0,37,0.00,FEW,FEW,0.00,981.0,WeatherDisplay:10.37,2013-05-12 16:24:00,
2013-05-12 12:29:00,61.3,33.4,29.97,WSW,239,13.0,20.0,35,0.00,FEW,FEW,0.00,986.0,WeatherDisplay:10.37,2013-05-12 16:29:00,
2013-05-12 12:39:00,61.6,32.2,29.97,West,261,10.0,16.0,33,0.00,FEW,FEW,0.00,993.0,WeatherDisplay:10.37,2013-05-12 16:39:00,
2013-05-12 12:44:00,62.2,32.0,29.97,WSW,256,15.0,22.0,32,0.00,FEW,FEW,0.00,997.0,WeatherDisplay:10.37,2013-05-12 16:44:00,
2013-05-12 12:49:00,61.8,31.6,29.97,WSW,239,14.0,24.0,32,0.00,FEW,FEW,0.00,1002.0,WeatherDisplay:10.37,2013-05-12 16:49:00,
2013-05-12 12:54:00,61.7,33.0,29.97,SW,235,5.0,17.0,34,0.00,FEW,FEW,0.00,1000.0,WeatherDisplay:10.37,2013-05-12 16:54:00,
2013-05-12 12:59:00,61.7,31.5,29.97,WSW,238,15.0,20.0,32,0.00,FEW,FEW,0.00,1007.0,WeatherDisplay:10.37,2013-05-12 16:59:00,
2013-05-12 13:04:00,61.7,30.7,29.97,WSW,252,14.0,24.0,31,0.00,FEW,FEW,0.00,1005.0,WeatherDisplay:10.37,2013-05-12 17:04:00,
2013-05-12 13:09:00,62.1,33.4,29.97,WSW,251,8.0,17.0,34,0.00,FEW,FEW,0.00,1007.0,WeatherDisplay:10.37,2013-05-12 17:09:00,
2013-05-12 13:19:00,62.8,33.2,29.97,WSW,239,10.0,20.0,33,0.00,FEW,FEW,0.00,1011.0,WeatherDisplay:10.37,2013-05-12 17:19:00,
2013-05-12 13:29:00,62.7,31.6,29.97,West,263,13.0,22.0,31,0.00,FEW,FEW,0.00,1009.0,WeatherDisplay:10.37,2013-05-12 17:29:00,
2013-05-12 13:39:00,63.0,31.0,29.96,SW,234,8.0,22.0,30,0.00,FEW,FEW,0.00,1009.0,WeatherDisplay:10.37,2013-05-12 17:39:00,
2013-05-12 13:44:00,62.9,30.1,29.96,SW,225,13.0,23.0,29,0.00,FEW,FEW,0.00,998.0,WeatherDisplay:10.37,2013-05-12 17:44:00,
2013-05-12 13:49:00,63.2,30.4,29.96,SW,235,10.0,20.0,29,0.00,FEW,FEW,0.00,1002.0,WeatherDisplay:10.37,2013-05-12 17:49:00,
2013-05-12 13:54:00,63.6,29.9,29.96,WSW,257,17.0,23.0,28,0.00,FEW,FEW,0.00,997.0,WeatherDisplay:10.37,2013-05-12 17:54:00,
2013-05-12 13:59:00,63.2,29.5,29.96,WSW,253,12.0,21.0,28,0.00,FEW,FEW,0.00,997.0,WeatherDisplay:10.37,2013-05-12 17:59:00,
2013-05-12 14:04:00,63.8,30.0,29.96,WSW,250,12.0,21.0,28,0.00,FEW,FEW,0.00,990.0,WeatherDisplay:10.37,2013-05-12 18:04:00,
2013-05-12 14:09:00,63.5,28.9,29.96,WSW,244,10.0,22.0,27,0.00,FEW,FEW,0.00,988.0,WeatherDisplay:10.37,2013-05-12 18:09:00,
2013-05-12 14:19:00,63.6,29.9,29.96,WSW,253,13.0,23.0,28,0.00,FEW,FEW,0.00,974.0,WeatherDisplay:10.37,2013-05-12 18:19:00,
2013-05-12 14:24:00,63.2,29.5,29.96,WSW,258,12.0,22.0,28,0.00,FEW,FEW,0.00,967.0,WeatherDisplay:10.37,2013-05-12 18:24:00,
2013-05-12 14:29:00,63.2,29.5,29.96,WSW,251,10.0,20.0,28,0.00,FEW,FEW,0.00,960.0,WeatherDisplay:10.37,2013-05-12 18:29:00,
2013-05-12 14:34:00,63.7,30.8,29.95,WSW,249,10.0,18.0,29,0.00,FEW,FEW,0.00,958.0,WeatherDisplay:10.37,2013-05-12 18:34:00,
2013-05-12 14:39:00,63.8,30.9,29.95,WSW,255,13.0,20.0,29,0.00,FEW,FEW,0.00,956.0,WeatherDisplay:10.37,2013-05-12 18:39:00,
2013-05-12 14:49:00,64.0,31.1,29.95,WSW,245,12.0,18.0,29,0.00,FEW,FEW,0.00,933.0,WeatherDisplay:10.37,2013-05-12 18:49:00,
2013-05-12 14:54:00,64.2,31.3,29.95,WSW,244,9.0,21.0,29,0.00,FEW,FEW,0.00,926.0,WeatherDisplay:10.37,2013-05-12 18:54:00,
2013-05-12 14:59:00,63.7,30.0,29.95,WSW,253,16.0,22.0,28,0.00,FEW,FEW,0.00,925.0,WeatherDisplay:10.37,2013-05-12 18:59:00,
2013-05-12 15:09:00,63.4,30.6,29.95,WSW,249,14.0,23.0,29,0.00,FEW,FEW,0.00,900.0,WeatherDisplay:10.37,2013-05-12 19:09:00,
2013-05-12 15:14:00,63.7,30.8,29.95,SW,225,13.0,22.0,29,0.00,FEW,FEW,0.00,888.0,WeatherDisplay:10.37,2013-05-12 19:14:00,
2013-05-12 15:19:00,64.1,32.0,29.95,SW,234,14.0,21.0,30,0.00,FEW,FEW,0.00,888.0,WeatherDisplay:10.37,2013-05-12 19:19:00,
2013-05-12 15:29:00,63.8,31.7,29.95,WSW,244,16.0,24.0,30,0.00,FEW,FEW,0.00,856.0,WeatherDisplay:10.37,2013-05-12 19:29:00,
2013-05-12 15:39:00,63.9,32.7,29.95,WSW,243,13.0,24.0,31,0.00,FEW,FEW,0.00,837.0,WeatherDisplay:10.37,2013-05-12 19:39:00,
2013-05-12 15:44:00,64.2,32.9,29.95,WSW,244,13.0,18.0,31,0.00,FEW,FEW,0.00,828.0,WeatherDisplay:10.37,2013-05-12 19:44:00,
2013-05-12 15:49:00,63.7,33.3,29.95,WSW,244,13.0,22.0,32,0.00,FEW,FEW,0.00,819.0,WeatherDisplay:10.37,2013-05-12 19:49:00,
2013-05-12 15:54:00,63.5,33.9,29.95,WSW,253,9.0,16.0,33,0.00,FEW,FEW,0.00,802.0,WeatherDisplay:10.37,2013-05-12 19:54:00,
2013-05-12 15:59:00,63.8,34.1,29.94,WSW,254,12.0,20.0,33,0.00,FEW,FEW,0.00,789.0,WeatherDisplay:10.37,2013-05-12 19:59:00,
2013-05-12 16:04:00,63.9,33.4,29.94,WSW,243,8.0,20.0,32,0.00,FEW,FEW,0.00,780.0,WeatherDisplay:10.37,2013-05-12 20:04:00,
2013-05-12 16:09:00,64.2,34.5,29.94,WSW,246,7.0,14.0,33,0.00,FEW,FEW,0.00,768.0,WeatherDisplay:10.37,2013-05-12 20:09:00,
2013-05-12 16:19:00,64.0,34.3,29.94,WSW,245,13.0,21.0,33,0.00,FEW,FEW,0.00,738.0,WeatherDisplay:10.37,2013-05-12 20:19:00,
2013-05-12 16:24:00,63.8,34.1,29.94,WSW,250,9.0,18.0,33,0.00,FEW,FEW,0.00,726.0,WeatherDisplay:10.37,2013-05-12 20:24:00,
2013-05-12 16:29:00,64.2,34.5,29.94,WSW,255,12.0,18.0,33,0.00,FEW,FEW,0.00,715.0,WeatherDisplay:10.37,2013-05-12 20:29:00,
2013-05-12 16:39:00,63.9,34.2,29.94,WSW,249,12.0,20.0,33,0.00,FEW,FEW,0.00,686.0,WeatherDisplay:10.37,2013-05-12 20:39:00,
2013-05-12 16:49:00,63.7,34.8,29.95,WSW,253,10.0,20.0,34,0.00,FEW,FEW,0.00,652.0,WeatherDisplay:10.37,2013-05-12 20:49:00,
2013-05-12 16:59:00,64.1,34.4,29.95,SW,232,12.0,18.0,33,0.00,FEW,FEW,0.00,626.0,WeatherDisplay:10.37,2013-05-12 20:59:00,
2013-05-12 17:04:00,63.6,35.4,29.95,WSW,238,8.0,20.0,35,0.00,FEW,FEW,0.00,606.0,WeatherDisplay:10.37,2013-05-12 21:04:00,
2013-05-12 17:09:00,63.5,35.3,29.96,WSW,242,9.0,18.0,35,0.00,FEW,FEW,0.00,592.0,WeatherDisplay:10.37,2013-05-12 21:09:00,
2013-05-12 17:19:00,63.3,35.2,29.97,WSW,250,9.0,20.0,35,0.00,FEW,FEW,0.00,559.0,WeatherDisplay:10.37,2013-05-12 21:19:00,
2013-05-12 17:29:00,62.1,34.8,29.97,WSW,246,10.0,24.0,36,0.00,CLR,CLR,0.00,524.0,WeatherDisplay:10.37,2013-05-12 21:29:00,
2013-05-12 17:39:00,62.9,34.8,29.98,WSW,255,9.0,14.0,35,0.00,CLR,CLR,0.00,490.0,WeatherDisplay:10.37,2013-05-12 21:39:00,
2013-05-12 17:44:00,62.7,34.6,29.98,WSW,249,5.0,16.0,35,0.00,CLR,CLR,0.00,473.0,WeatherDisplay:10.37,2013-05-12 21:44:00,
2013-05-12 17:49:00,62.5,34.5,29.98,WSW,258,7.0,17.0,35,0.00,CLR,CLR,0.00,455.0,WeatherDisplay:10.37,2013-05-12 21:49:00,
2013-05-12 17:54:00,62.6,34.6,29.98,WSW,252,10.0,17.0,35,0.00,CLR,CLR,0.00,438.0,WeatherDisplay:10.37,2013-05-12 21:54:00,
2013-05-12 17:59:00,62.4,34.3,29.98,WSW,239,9.0,20.0,35,0.00,CLR,CLR,0.00,420.0,WeatherDisplay:10.37,2013-05-12 21:59:00,
2013-05-12 18:04:00,62.2,34.2,29.98,WSW,238,8.0,17.0,35,0.00,CLR,CLR,0.00,401.0,WeatherDisplay:10.37,2013-05-12 22:04:00,
2013-05-12 18:09:00,61.8,33.8,29.98,WSW,253,6.0,17.0,35,0.00,CLR,CLR,0.00,385.0,WeatherDisplay:10.37,2013-05-12 22:09:00,
2013-05-12 18:19:00,61.2,33.3,29.98,WSW,243,10.0,20.0,35,0.00,CLR,CLR,0.00,350.0,WeatherDisplay:10.37,2013-05-12 22:19:00,
2013-05-12 18:24:00,61.1,33.9,29.98,WSW,251,5.0,15.0,36,0.00,CLR,CLR,0.00,332.0,WeatherDisplay:10.37,2013-05-12 22:24:00,
2013-05-12 18:29:00,61.0,33.2,29.99,WSW,256,8.0,15.0,35,0.00,CLR,CLR,0.00,313.0,WeatherDisplay:10.37,2013-05-12 22:29:00,
2013-05-12 18:34:00,61.0,33.8,29.99,WSW,257,3.0,15.0,36,0.00,CLR,CLR,0.00,294.0,WeatherDisplay:10.37,2013-05-12 22:34:00,
2013-05-12 18:39:00,60.8,33.0,29.99,WSW,256,7.0,15.0,35,0.00,FEW,FEW,0.00,276.0,WeatherDisplay:10.37,2013-05-12 22:39:00,
2013-05-12 18:49:00,61.0,33.1,29.99,WNW,291,2.0,12.0,35,0.00,FEW,FEW,0.00,243.0,WeatherDisplay:10.37,2013-05-12 22:49:00,
2013-05-12 18:59:00,60.7,32.8,30.00,WSW,246,7.0,15.0,35,0.00,FEW,FEW,0.00,207.0,WeatherDisplay:10.37,2013-05-12 22:59:00,
2013-05-12 19:04:00,60.0,32.2,30.00,WSW,249,8.0,16.0,35,0.00,FEW,FEW,0.00,188.0,WeatherDisplay:10.37,2013-05-12 23:04:00,
2013-05-12 19:09:00,59.8,32.1,30.00,WSW,250,7.0,12.0,35,0.00,FEW,FEW,0.00,167.0,WeatherDisplay:10.37,2013-05-12 23:09:00,
2013-05-12 19:19:00,59.1,31.5,30.00,WSW,250,1.0,13.0,35,0.00,SCT,SCT,0.00,127.0,WeatherDisplay:10.37,2013-05-12 23:19:00,
2013-05-12 19:24:00,59.0,31.4,30.00,WSW,247,6.0,12.0,35,0.00,SCT,SCT,0.00,111.0,WeatherDisplay:10.37,2013-05-12 23:24:00,
2013-05-12 19:29:00,59.0,32.1,30.01,WSW,243,5.0,15.0,36,0.00,SCT,SCT,0.00,91.0,WeatherDisplay:10.37,2013-05-12 23:29:00,
2013-05-12 19:34:00,58.5,31.6,30.01,WSW,245,2.0,10.0,36,0.00,SCT,SCT,0.00,74.0,WeatherDisplay:10.37,2013-05-12 23:34:00,
2013-05-12 19:39:00,58.1,32.0,30.01,WSW,256,3.0,10.0,37,0.00,BKN,BKN,0.00,58.0,WeatherDisplay:10.37,2013-05-12 23:39:00,
2013-05-12 19:44:00,57.7,32.3,30.01,WSW,256,2.0,10.0,38,0.00,OVC,OVC,0.00,28.0,WeatherDisplay:10.37,2013-05-12 23:44:00,
2013-05-12 19:49:00,57.4,32.0,30.01,WSW,252,3.0,6.0,38,0.00,OVC,OVC,0.00,23.0,WeatherDisplay:10.37,2013-05-12 23:49:00,
2013-05-12 19:54:00,56.9,32.1,30.01,West,260,5.0,7.0,39,0.00,OVC,OVC,0.00,21.0,WeatherDisplay:10.37,2013-05-12 23:54:00,
2013-05-12 19:59:00,56.4,32.3,30.01,WSW,249,1.0,10.0,40,0.00,OVC,OVC,0.00,19.0,WeatherDisplay:10.37,2013-05-12 23:59:00,
2013-05-12 20:09:00,55.5,32.2,30.01,West,274,2.0,7.0,41,0.00,BKN,BKN,0.00,14.0,WeatherDisplay:10.37,2013-05-13 00:09:00,
2013-05-12 20:14:00,55.1,31.8,30.02,West,269,0.0,6.0,41,0.00,BKN,BKN,0.00,11.0,WeatherDisplay:10.37,2013-05-13 00:14:00,
2013-05-12 20:19:00,54.7,32.0,30.02,WNW,288,0.0,1.0,42,0.00,FEW,FEW,0.00,9.0,WeatherDisplay:10.37,2013-05-13 00:19:00,
2013-05-12 20:29:00,54.3,31.7,30.03,WSW,257,2.0,5.0,42,0.00,OVC,OVC,0.00,0.0,WeatherDisplay:10.37,2013-05-13 00:29:00,
2013-05-12 20:34:00,54.0,32.6,30.03,WNW,289,0.0,6.0,44,0.00,OVC,OVC,0.00,0.0,WeatherDisplay:10.37,2013-05-13 00:34:00,
2013-05-12 20:39:00,53.9,32.5,30.03,WSW,257,0.0,3.0,44,0.00,OVC,OVC,0.00,0.0,WeatherDisplay:10.37,2013-05-13 00:39:00,
2013-05-12 20:49:00,53.3,32.5,30.03,WSW,241,2.0,9.0,45,0.00,OVC,OVC,0.00,0.0,WeatherDisplay:10.37,2013-05-13 00:49:00,
2013-05-12 20:54:00,52.9,32.1,30.03,WNW,287,5.0,9.0,45,0.00,OVC,OVC,0.00,0.0,WeatherDisplay:10.37,2013-05-13 00:54:00,
2013-05-12 21:04:00,52.3,31.6,30.03,West,266,1.0,12.0,45,0.00,CLR,CLR,0.00,0.0,WeatherDisplay:10.37,2013-05-13 01:04:00,
2013-05-12 21:09:00,52.2,31.5,30.04,West,259,1.0,13.0,45,0.00,CLR,CLR,0.00,0.0,WeatherDisplay:10.37,2013-05-13 01:09:00,
2013-05-12 21:19:00,51.7,32.1,30.04,West,273,0.0,4.0,47,0.00,CLR,CLR,0.00,0.0,WeatherDisplay:10.37,2013-05-13 01:19:00,
2013-05-12 21:29:00,51.2,31.6,30.04,SW,236,2.0,14.0,47,0.00,CLR,CLR,0.00,0.0,WeatherDisplay:10.37,2013-05-13 01:29:00,
2013-05-12 21:34:00,51.0,32.5,30.04,SW,227,2.0,9.0,49,0.00,CLR,CLR,0.00,0.0,WeatherDisplay:10.37,2013-05-13 01:34:00,
2013-05-12 21:39:00,50.7,32.2,30.05,SW,221,3.0,9.0,49,0.00,CLR,CLR,0.00,0.0,WeatherDisplay:10.37,2013-05-13 01:39:00,
2013-05-12 21:44:00,50.5,32.0,30.05,SW,222,1.0,5.0,49,0.00,CLR,CLR,0.00,0.0,WeatherDisplay:10.37,2013-05-13 01:44:00,
2013-05-12 21:49:00,50.3,31.8,30.06,SW,229,3.0,7.0,49,0.00,CLR,CLR,0.00,0.0,WeatherDisplay:10.37,2013-05-13 01:49:00,
2013-05-12 21:59:00,49.9,32.0,30.06,WSW,238,0.0,5.0,50,0.00,CLR,CLR,0.00,0.0,WeatherDisplay:10.37,2013-05-13 01:59:00,
2013-05-12 22:04:00,49.8,31.9,30.07,SW,230,2.0,9.0,50,0.00,CLR,CLR,0.00,0.0,WeatherDisplay:10.37,2013-05-13 02:04:00,
2013-05-12 22:09:00,49.7,31.8,30.06,SW,226,0.0,3.0,50,0.00,CLR,CLR,0.00,0.0,WeatherDisplay:10.37,2013-05-13 02:09:00,
2013-05-12 22:14:00,49.6,31.7,30.06,SW,221,0.0,3.0,50,0.00,CLR,CLR,0.00,0.0,WeatherDisplay:10.37,2013-05-13 02:14:00,
2013-05-12 22:19:00,49.5,31.6,30.06,WSW,238,1.0,5.0,50,0.00,CLR,CLR,0.00,0.0,WeatherDisplay:10.37,2013-05-13 02:19:00,
2013-05-12 22:29:00,49.4,31.5,30.07,West,260,2.0,5.0,50,0.00,CLR,CLR,0.00,0.0,WeatherDisplay:10.37,2013-05-13 02:29:00,
2013-05-12 22:39:00,49.2,31.8,30.07,WSW,247,0.0,6.0,51,0.00,CLR,CLR,0.00,0.0,WeatherDisplay:10.37,2013-05-13 02:39:00,
2013-05-12 22:44:00,49.0,31.6,30.07,WSW,241,2.0,4.0,51,0.00,CLR,CLR,0.00,0.0,WeatherDisplay:10.37,2013-05-13 02:44:00,
2013-05-12 22:49:00,48.8,31.5,30.07,SW,225,0.0,3.0,51,0.00,CLR,CLR,0.00,0.0,WeatherDisplay:10.37,2013-05-13 02:49:00,
2013-05-12 22:54:00,48.6,31.8,30.07,SW,216,1.0,3.0,52,0.00,CLR,CLR,0.00,0.0,WeatherDisplay:10.37,2013-05-13 02:54:00,
2013-05-12 22:59:00,48.4,31.6,30.08,SW,218,0.0,1.0,52,0.00,CLR,CLR,0.00,0.0,WeatherDisplay:10.37,2013-05-13 02:59:00,
2013-05-12 23:04:00,48.2,31.9,30.07,SW,218,0.0,4.0,53,0.00,CLR,CLR,0.00,0.0,WeatherDisplay:10.37,2013-05-13 03:04:00,
2013-05-12 23:09:00,48.0,31.2,30.08,WSW,247,3.0,6.0,52,0.00,CLR,CLR,0.00,0.0,WeatherDisplay:10.37,2013-05-13 03:09:00,
2013-05-12 23:19:00,47.8,31.9,30.08,WSW,246,3.0,7.0,54,0.00,CLR,CLR,0.00,0.0,WeatherDisplay:10.37,2013-05-13 03:19:00,
2013-05-12 23:24:00,47.7,31.9,30.08,WSW,247,1.0,5.0,54,0.00,CLR,CLR,0.00,0.0,WeatherDisplay:10.37,2013-05-13 03:24:00,
2013-05-12 23:29:00,47.3,31.5,30.08,WSW,254,2.0,5.0,54,0.00,CLR,CLR,0.00,0.0,WeatherDisplay:10.37,2013-05-13 03:29:00,
2013-05-12 23:39:00,46.2,33.1,30.08,SW,235,0.0,3.0,60,0.00,CLR,CLR,0.00,0.0,WeatherDisplay:10.37,2013-05-13 03:39:00,
2013-05-12 23:49:00,45.0,31.9,30.09,SW,231,1.0,2.0,60,0.00,CLR,CLR,0.00,0.0,WeatherDisplay:10.37,2013-05-13 03:49:00,
2013-05-12 23:54:00,44.9,32.2,30.09,SW,231,0.0,2.0,61,0.00,CLR,CLR,0.00,0.0,WeatherDisplay:10.37,2013-05-13 03:54:00,
2013-05-12 23:59:00,44.5,32.7,30.08,SW,230,0.0,0.0,63,0.00,CLR,CLR,0.00,0.0,WeatherDisplay:10.37,2013-05-13 03:59:00,